sensor_id;sensor_type;location;lat;lon;timestamp;P1;durP1;ratioP1;P2;durP2;ratioP2
59530;SDS011;45349;48.692;8.186;2023-04-24T00:01:58;2.07;;;0.57;;
59530;SDS011;45349;48.692;8.186;2023-04-24T00:04:24;0.93;;;0.47;;
59530;SDS011;45349;48.692;8.186;2023-04-24T00:06:51;2.33;;;0.43;;
59530;SDS011;45349;48.692;8.186;2023-04-24T00:09:22;3.60;;;0.73;;
59530;SDS011;45349;48.692;8.186;2023-04-24T00:11:50;3.70;;;0.60;;
59530;SDS011;45349;48.692;8.186;2023-04-24T00:14:23;1.70;;;0.70;;
59530;SDS011;45349;48.692;8.186;2023-04-24T00:16:49;1.63;;;0.97;;
59530;SDS011;45349;48.692;8.186;2023-04-24T00:19:18;2.47;;;0.43;;
59530;SDS011;45349;48.692;8.186;2023-04-24T00:21:46;1.40;;;0.57;;
59530;SDS011;45349;48.692;8.186;2023-04-24T00:24:18;3.07;;;0.40;;
59530;SDS011;45349;48.692;8.186;2023-04-24T00:26:44;1.63;;;0.40;;
59530;SDS011;45349;48.692;8.186;2023-04-24T00:29:38;3.47;;;0.50;;
59530;SDS011;45349;48.692;8.186;2023-04-24T00:32:04;4.43;;;0.80;;
59530;SDS011;45349;48.692;8.186;2023-04-24T00:34:31;0.77;;;0.53;;
59530;SDS011;45349;48.692;8.186;2023-04-24T00:36:58;1.20;;;0.50;;
59530;SDS011;45349;48.692;8.186;2023-04-24T00:39:25;1.93;;;0.60;;
59530;SDS011;45349;48.692;8.186;2023-04-24T00:41:52;1.17;;;0.60;;
59530;SDS011;45349;48.692;8.186;2023-04-24T00:44:19;2.10;;;0.67;;
59530;SDS011;45349;48.692;8.186;2023-04-24T00:46:47;2.27;;;0.70;;
59530;SDS011;45349;48.692;8.186;2023-04-24T00:49:18;3.77;;;0.70;;
59530;SDS011;45349;48.692;8.186;2023-04-24T00:51:44;2.37;;;0.73;;
59530;SDS011;45349;48.692;8.186;2023-04-24T00:54:37;3.70;;;0.73;;
59530;SDS011;45349;48.692;8.186;2023-04-24T00:57:03;2.40;;;0.70;;
59530;SDS011;45349;48.692;8.186;2023-04-24T00:59:30;2.47;;;0.70;;
59530;SDS011;45349;48.692;8.186;2023-04-24T01:01:59;3.93;;;0.70;;
59530;SDS011;45349;48.692;8.186;2023-04-24T01:04:25;1.13;;;0.50;;
59530;SDS011;45349;48.692;8.186;2023-04-24T01:06:52;0.93;;;0.40;;
59530;SDS011;45349;48.692;8.186;2023-04-24T01:09:21;2.87;;;0.50;;
59530;SDS011;45349;48.692;8.186;2023-04-24T01:11:49;3.17;;;0.57;;
59530;SDS011;45349;48.692;8.186;2023-04-24T01:14:18;2.30;;;0.50;;
59530;SDS011;45349;48.692;8.186;2023-04-24T01:16:48;2.80;;;0.80;;
59530;SDS011;45349;48.692;8.186;2023-04-24T01:19:21;3.00;;;0.90;;
59530;SDS011;45349;48.692;8.186;2023-04-24T01:21:47;1.50;;;0.80;;
59530;SDS011;45349;48.692;8.186;2023-04-24T01:24:21;1.47;;;0.60;;
59530;SDS011;45349;48.692;8.186;2023-04-24T01:26:47;4.63;;;0.70;;
59530;SDS011;45349;48.692;8.186;2023-04-24T01:29:18;3.00;;;0.60;;
59530;SDS011;45349;48.692;8.186;2023-04-24T01:31:45;2.20;;;0.60;;
59530;SDS011;45349;48.692;8.186;2023-04-24T01:34:18;4.27;;;0.50;;
59530;SDS011;45349;48.692;8.186;2023-04-24T01:36:45;3.40;;;0.80;;
59530;SDS011;45349;48.692;8.186;2023-04-24T01:39:18;2.93;;;0.70;;
59530;SDS011;45349;48.692;8.186;2023-04-24T01:41:49;0.93;;;0.60;;
59530;SDS011;45349;48.692;8.186;2023-04-24T01:44:18;4.43;;;1.13;;
59530;SDS011;45349;48.692;8.186;2023-04-24T01:46:45;3.93;;;0.63;;
59530;SDS011;45349;48.692;8.186;2023-04-24T01:49:37;1.43;;;0.63;;
59530;SDS011;45349;48.692;8.186;2023-04-24T01:52:04;1.17;;;0.70;;
59530;SDS011;45349;48.692;8.186;2023-04-24T01:54:33;1.63;;;0.67;;
59530;SDS011;45349;48.692;8.186;2023-04-24T01:57:02;5.07;;;0.70;;
59530;SDS011;45349;48.692;8.186;2023-04-24T01:59:28;4.90;;;0.70;;
59530;SDS011;45349;48.692;8.186;2023-04-24T02:01:56;1.03;;;0.60;;
59530;SDS011;45349;48.692;8.186;2023-04-24T02:04:22;1.93;;;0.57;;
59530;SDS011;45349;48.692;8.186;2023-04-24T02:06:49;1.70;;;0.70;;
59530;SDS011;45349;48.692;8.186;2023-04-24T02:09:18;2.03;;;0.60;;
59530;SDS011;45349;48.692;8.186;2023-04-24T02:11:45;1.80;;;0.70;;
59530;SDS011;45349;48.692;8.186;2023-04-24T02:14:38;1.40;;;0.60;;
59530;SDS011;45349;48.692;8.186;2023-04-24T02:17:05;1.55;;;0.68;;
59530;SDS011;45349;48.692;8.186;2023-04-24T02:19:35;0.50;;;0.40;;
59530;SDS011;45349;48.692;8.186;2023-04-24T02:22:02;3.33;;;0.50;;
59530;SDS011;45349;48.692;8.186;2023-04-24T02:24:28;2.67;;;0.50;;
59530;SDS011;45349;48.692;8.186;2023-04-24T02:26:55;1.90;;;0.67;;
59530;SDS011;45349;48.692;8.186;2023-04-24T02:29:24;5.33;;;0.90;;
59530;SDS011;45349;48.692;8.186;2023-04-24T02:31:52;4.30;;;0.50;;
59530;SDS011;45349;48.692;8.186;2023-04-24T02:34:19;1.90;;;0.60;;
59530;SDS011;45349;48.692;8.186;2023-04-24T02:36:45;1.13;;;0.50;;
59530;SDS011;45349;48.692;8.186;2023-04-24T02:39:37;1.83;;;0.40;;
59530;SDS011;45349;48.692;8.186;2023-04-24T02:42:03;1.60;;;0.60;;
59530;SDS011;45349;48.692;8.186;2023-04-24T02:44:30;1.87;;;0.57;;
59530;SDS011;45349;48.692;8.186;2023-04-24T02:46:58;3.57;;;0.40;;
59530;SDS011;45349;48.692;8.186;2023-04-24T02:49:25;0.67;;;0.40;;
59530;SDS011;45349;48.692;8.186;2023-04-24T02:51:52;2.10;;;0.50;;
59530;SDS011;45349;48.692;8.186;2023-04-24T02:54:19;2.73;;;0.60;;
59530;SDS011;45349;48.692;8.186;2023-04-24T02:56:46;0.97;;;0.30;;
59530;SDS011;45349;48.692;8.186;2023-04-24T02:59:18;2.00;;;0.50;;
59530;SDS011;45349;48.692;8.186;2023-04-24T03:04:27;0.70;;;0.40;;
59530;SDS011;45349;48.692;8.186;2023-04-24T03:06:54;1.87;;;0.50;;
59530;SDS011;45349;48.692;8.186;2023-04-24T03:09:21;1.17;;;0.67;;
59530;SDS011;45349;48.692;8.186;2023-04-24T03:11:48;1.63;;;0.47;;
59530;SDS011;45349;48.692;8.186;2023-04-24T03:14:18;2.77;;;1.00;;
59530;SDS011;45349;48.692;8.186;2023-04-24T03:16:45;2.47;;;1.13;;
59530;SDS011;45349;48.692;8.186;2023-04-24T03:19:38;2.50;;;1.13;;
59530;SDS011;45349;48.692;8.186;2023-04-24T03:22:09;1.57;;;1.10;;
59530;SDS011;45349;48.692;8.186;2023-04-24T03:24:37;2.57;;;1.30;;
59530;SDS011;45349;48.692;8.186;2023-04-24T03:27:03;3.93;;;1.40;;
59530;SDS011;45349;48.692;8.186;2023-04-24T03:29:45;2.90;;;1.30;;
59530;SDS011;45349;48.692;8.186;2023-04-24T03:32:12;2.33;;;1.37;;
59530;SDS011;45349;48.692;8.186;2023-04-24T03:34:40;2.23;;;1.53;;
59530;SDS011;45349;48.692;8.186;2023-04-24T03:37:09;2.97;;;1.60;;
59530;SDS011;45349;48.692;8.186;2023-04-24T03:39:40;20.70;;;11.03;;
59530;SDS011;45349;48.692;8.186;2023-04-24T03:42:06;4.03;;;1.87;;
59530;SDS011;45349;48.692;8.186;2023-04-24T03:44:44;2.93;;;1.50;;
59530;SDS011;45349;48.692;8.186;2023-04-24T03:47:11;2.67;;;1.77;;
59530;SDS011;45349;48.692;8.186;2023-04-24T03:49:38;13.73;;;12.37;;
59530;SDS011;45349;48.692;8.186;2023-04-24T03:52:06;9.20;;;8.27;;
59530;SDS011;45349;48.692;8.186;2023-04-24T03:54:32;3.57;;;1.90;;
59530;SDS011;45349;48.692;8.186;2023-04-24T03:56:59;3.97;;;3.10;;
59530;SDS011;45349;48.692;8.186;2023-04-24T03:59:28;2.83;;;1.70;;
59530;SDS011;45349;48.692;8.186;2023-04-24T04:02:08;5.80;;;3.20;;
59530;SDS011;45349;48.692;8.186;2023-04-24T04:04:34;5.17;;;3.70;;
59530;SDS011;45349;48.692;8.186;2023-04-24T04:07:01;5.40;;;2.43;;
59530;SDS011;45349;48.692;8.186;2023-04-24T04:09:29;2.57;;;1.60;;
59530;SDS011;45349;48.692;8.186;2023-04-24T04:11:56;5.97;;;2.10;;
59530;SDS011;45349;48.692;8.186;2023-04-24T04:14:22;2.93;;;2.17;;
59530;SDS011;45349;48.692;8.186;2023-04-24T04:16:49;2.93;;;2.10;;
59530;SDS011;45349;48.692;8.186;2023-04-24T04:19:19;4.13;;;1.93;;
59530;SDS011;45349;48.692;8.186;2023-04-24T04:21:45;4.07;;;1.97;;
59530;SDS011;45349;48.692;8.186;2023-04-24T04:24:55;6.80;;;2.10;;
59530;SDS011;45349;48.692;8.186;2023-04-24T04:27:24;5.33;;;3.40;;
59530;SDS011;45349;48.692;8.186;2023-04-24T04:30:01;3.47;;;2.50;;
59530;SDS011;45349;48.692;8.186;2023-04-24T04:32:33;2.23;;;2.00;;
59530;SDS011;45349;48.692;8.186;2023-04-24T04:35:01;4.00;;;2.40;;
59530;SDS011;45349;48.692;8.186;2023-04-24T04:37:30;4.67;;;3.17;;
59530;SDS011;45349;48.692;8.186;2023-04-24T04:40:09;8.77;;;4.60;;
59530;SDS011;45349;48.692;8.186;2023-04-24T04:42:44;4.70;;;3.63;;
59530;SDS011;45349;48.692;8.186;2023-04-24T04:45:11;5.70;;;3.63;;
59530;SDS011;45349;48.692;8.186;2023-04-24T04:47:54;6.33;;;3.37;;
59530;SDS011;45349;48.692;8.186;2023-04-24T04:50:22;8.83;;;4.57;;
59530;SDS011;45349;48.692;8.186;2023-04-24T04:52:52;4.73;;;3.10;;
59530;SDS011;45349;48.692;8.186;2023-04-24T04:55:27;4.43;;;3.13;;
59530;SDS011;45349;48.692;8.186;2023-04-24T04:58:07;4.90;;;3.70;;
59530;SDS011;45349;48.692;8.186;2023-04-24T05:00:33;5.03;;;3.10;;
59530;SDS011;45349;48.692;8.186;2023-04-24T05:03:05;11.27;;;8.13;;
59530;SDS011;45349;48.692;8.186;2023-04-24T05:05:32;6.23;;;3.80;;
59530;SDS011;45349;48.692;8.186;2023-04-24T05:07:58;4.20;;;3.10;;
59530;SDS011;45349;48.692;8.186;2023-04-24T05:10:26;10.67;;;6.40;;
59530;SDS011;45349;48.692;8.186;2023-04-24T05:12:54;4.17;;;2.47;;
59530;SDS011;45349;48.692;8.186;2023-04-24T05:15:21;3.63;;;2.73;;
59530;SDS011;45349;48.692;8.186;2023-04-24T05:17:48;2.72;;;2.10;;
59530;SDS011;45349;48.692;8.186;2023-04-24T05:20:15;4.90;;;3.00;;
59530;SDS011;45349;48.692;8.186;2023-04-24T05:22:42;3.47;;;1.60;;
59530;SDS011;45349;48.692;8.186;2023-04-24T05:25:09;3.87;;;1.97;;
59530;SDS011;45349;48.692;8.186;2023-04-24T05:27:42;3.23;;;1.83;;
59530;SDS011;45349;48.692;8.186;2023-04-24T05:30:13;5.20;;;1.87;;
59530;SDS011;45349;48.692;8.186;2023-04-24T05:32:40;2.30;;;1.43;;
59530;SDS011;45349;48.692;8.186;2023-04-24T05:35:07;4.87;;;1.80;;
59530;SDS011;45349;48.692;8.186;2023-04-24T05:37:35;4.23;;;1.80;;
59530;SDS011;45349;48.692;8.186;2023-04-24T05:40:02;4.27;;;1.70;;
59530;SDS011;45349;48.692;8.186;2023-04-24T05:42:30;2.17;;;1.67;;
59530;SDS011;45349;48.692;8.186;2023-04-24T05:44:58;3.87;;;1.60;;
59530;SDS011;45349;48.692;8.186;2023-04-24T05:47:25;3.03;;;1.97;;
59530;SDS011;45349;48.692;8.186;2023-04-24T05:49:53;3.27;;;2.10;;
59530;SDS011;45349;48.692;8.186;2023-04-24T05:52:19;5.00;;;2.17;;
59530;SDS011;45349;48.692;8.186;2023-04-24T05:54:47;3.63;;;2.00;;
59530;SDS011;45349;48.692;8.186;2023-04-24T05:57:19;3.03;;;1.57;;
59530;SDS011;45349;48.692;8.186;2023-04-24T05:59:52;2.87;;;1.63;;
59530;SDS011;45349;48.692;8.186;2023-04-24T06:02:22;4.10;;;3.00;;
59530;SDS011;45349;48.692;8.186;2023-04-24T06:04:49;4.17;;;1.93;;
59530;SDS011;45349;48.692;8.186;2023-04-24T06:07:16;3.90;;;1.77;;
59530;SDS011;45349;48.692;8.186;2023-04-24T06:09:44;5.10;;;2.30;;
59530;SDS011;45349;48.692;8.186;2023-04-24T06:12:10;6.00;;;2.23;;
59530;SDS011;45349;48.692;8.186;2023-04-24T06:14:54;5.90;;;1.90;;
59530;SDS011;45349;48.692;8.186;2023-04-24T06:17:28;3.63;;;2.70;;
59530;SDS011;45349;48.692;8.186;2023-04-24T06:19:54;2.83;;;2.00;;
59530;SDS011;45349;48.692;8.186;2023-04-24T06:22:24;2.93;;;1.73;;
59530;SDS011;45349;48.692;8.186;2023-04-24T06:24:51;5.13;;;2.10;;
59530;SDS011;45349;48.692;8.186;2023-04-24T06:27:17;4.17;;;2.77;;
59530;SDS011;45349;48.692;8.186;2023-04-24T06:29:44;6.77;;;4.07;;
59530;SDS011;45349;48.692;8.186;2023-04-24T06:32:10;4.97;;;3.10;;
59530;SDS011;45349;48.692;8.186;2023-04-24T06:34:38;4.40;;;2.73;;
59530;SDS011;45349;48.692;8.186;2023-04-24T06:37:05;5.37;;;3.10;;
59530;SDS011;45349;48.692;8.186;2023-04-24T06:39:32;3.77;;;2.43;;
59530;SDS011;45349;48.692;8.186;2023-04-24T06:41:58;7.47;;;2.20;;
59530;SDS011;45349;48.692;8.186;2023-04-24T06:44:25;4.33;;;2.20;;
59530;SDS011;45349;48.692;8.186;2023-04-24T06:46:52;4.77;;;2.20;;
59530;SDS011;45349;48.692;8.186;2023-04-24T06:49:19;3.80;;;2.00;;
59530;SDS011;45349;48.692;8.186;2023-04-24T06:51:47;4.93;;;2.00;;
59530;SDS011;45349;48.692;8.186;2023-04-24T06:54:19;2.10;;;1.80;;
59530;SDS011;45349;48.692;8.186;2023-04-24T06:56:45;2.43;;;1.87;;
59530;SDS011;45349;48.692;8.186;2023-04-24T06:59:37;4.43;;;1.90;;
59530;SDS011;45349;48.692;8.186;2023-04-24T07:02:04;2.80;;;2.33;;
59530;SDS011;45349;48.692;8.186;2023-04-24T07:04:31;4.60;;;2.10;;
59530;SDS011;45349;48.692;8.186;2023-04-24T07:06:59;6.00;;;2.80;;
59530;SDS011;45349;48.692;8.186;2023-04-24T07:09:26;3.17;;;2.10;;
59530;SDS011;45349;48.692;8.186;2023-04-24T07:11:53;3.40;;;2.10;;
59530;SDS011;45349;48.692;8.186;2023-04-24T07:14:21;4.47;;;2.80;;
59530;SDS011;45349;48.692;8.186;2023-04-24T07:16:48;3.03;;;2.37;;
59530;SDS011;45349;48.692;8.186;2023-04-24T07:19:19;8.50;;;2.60;;
59530;SDS011;45349;48.692;8.186;2023-04-24T07:21:46;4.43;;;2.53;;
59530;SDS011;45349;48.692;8.186;2023-04-24T07:24:38;5.47;;;2.63;;
59530;SDS011;45349;48.692;8.186;2023-04-24T07:27:05;4.57;;;2.60;;
59530;SDS011;45349;48.692;8.186;2023-04-24T07:29:31;3.43;;;2.40;;
59530;SDS011;45349;48.692;8.186;2023-04-24T07:31:58;4.93;;;2.23;;
59530;SDS011;45349;48.692;8.186;2023-04-24T07:34:25;5.03;;;2.57;;
59530;SDS011;45349;48.692;8.186;2023-04-24T07:36:54;4.53;;;2.83;;
59530;SDS011;45349;48.692;8.186;2023-04-24T07:39:20;4.33;;;2.60;;
59530;SDS011;45349;48.692;8.186;2023-04-24T07:41:48;3.33;;;2.37;;
59530;SDS011;45349;48.692;8.186;2023-04-24T07:44:19;3.87;;;2.83;;
59530;SDS011;45349;48.692;8.186;2023-04-24T07:46:45;4.93;;;2.53;;
59530;SDS011;45349;48.692;8.186;2023-04-24T07:49:38;3.80;;;1.83;;
59530;SDS011;45349;48.692;8.186;2023-04-24T07:52:04;6.87;;;2.40;;
59530;SDS011;45349;48.692;8.186;2023-04-24T07:54:31;6.20;;;2.63;;
59530;SDS011;45349;48.692;8.186;2023-04-24T07:56:59;3.07;;;2.67;;
59530;SDS011;45349;48.692;8.186;2023-04-24T07:59:25;6.70;;;2.40;;
59530;SDS011;45349;48.692;8.186;2023-04-24T08:01:52;4.93;;;2.10;;
59530;SDS011;45349;48.692;8.186;2023-04-24T08:04:19;4.73;;;2.27;;
59530;SDS011;45349;48.692;8.186;2023-04-24T08:06:46;4.33;;;2.50;;
59530;SDS011;45349;48.692;8.186;2023-04-24T08:09:19;2.90;;;2.50;;
59530;SDS011;45349;48.692;8.186;2023-04-24T08:11:46;5.77;;;2.10;;
59530;SDS011;45349;48.692;8.186;2023-04-24T08:14:44;2.77;;;1.90;;
59530;SDS011;45349;48.692;8.186;2023-04-24T08:17:11;4.13;;;2.10;;
59530;SDS011;45349;48.692;8.186;2023-04-24T08:19:39;3.03;;;1.70;;
59530;SDS011;45349;48.692;8.186;2023-04-24T08:22:08;2.30;;;1.90;;
59530;SDS011;45349;48.692;8.186;2023-04-24T08:24:34;3.57;;;1.93;;
59530;SDS011;45349;48.692;8.186;2023-04-24T08:27:01;3.07;;;2.40;;
59530;SDS011;45349;48.692;8.186;2023-04-24T08:29:28;3.83;;;2.60;;
59530;SDS011;45349;48.692;8.186;2023-04-24T08:31:56;4.57;;;1.60;;
59530;SDS011;45349;48.692;8.186;2023-04-24T08:34:22;4.13;;;1.70;;
59530;SDS011;45349;48.692;8.186;2023-04-24T08:36:49;2.73;;;2.07;;
59530;SDS011;45349;48.692;8.186;2023-04-24T08:39:19;5.70;;;2.60;;
59530;SDS011;45349;48.692;8.186;2023-04-24T08:41:46;4.87;;;1.73;;
59530;SDS011;45349;48.692;8.186;2023-04-24T08:44:19;2.97;;;1.60;;
59530;SDS011;45349;48.692;8.186;2023-04-24T08:46:47;3.03;;;1.63;;
59530;SDS011;45349;48.692;8.186;2023-04-24T08:49:20;3.67;;;1.50;;
59530;SDS011;45349;48.692;8.186;2023-04-24T08:51:50;2.83;;;1.50;;
59530;SDS011;45349;48.692;8.186;2023-04-24T08:54:19;2.97;;;1.50;;
59530;SDS011;45349;48.692;8.186;2023-04-24T08:56:47;2.87;;;1.50;;
59530;SDS011;45349;48.692;8.186;2023-04-24T08:59:19;4.47;;;1.70;;
59530;SDS011;45349;48.692;8.186;2023-04-24T09:01:48;2.80;;;1.70;;
59530;SDS011;45349;48.692;8.186;2023-04-24T09:04:21;3.00;;;1.70;;
59530;SDS011;45349;48.692;8.186;2023-04-24T09:06:49;6.77;;;1.50;;
59530;SDS011;45349;48.692;8.186;2023-04-24T09:09:19;4.23;;;1.53;;
59530;SDS011;45349;48.692;8.186;2023-04-24T09:11:47;3.30;;;1.40;;
59530;SDS011;45349;48.692;8.186;2023-04-24T09:14:19;1.90;;;1.40;;
59530;SDS011;45349;48.692;8.186;2023-04-24T09:16:49;3.13;;;1.60;;
59530;SDS011;45349;48.692;8.186;2023-04-24T09:19:23;3.13;;;1.40;;
59530;SDS011;45349;48.692;8.186;2023-04-24T09:21:52;2.77;;;1.23;;
59530;SDS011;45349;48.692;8.186;2023-04-24T09:24:20;2.20;;;1.37;;
59530;SDS011;45349;48.692;8.186;2023-04-24T09:26:48;4.50;;;1.40;;
59530;SDS011;45349;48.692;8.186;2023-04-24T09:29:22;4.87;;;1.53;;
59530;SDS011;45349;48.692;8.186;2023-04-24T09:31:48;3.53;;;1.30;;
59530;SDS011;45349;48.692;8.186;2023-04-24T09:34:20;4.57;;;1.70;;
59530;SDS011;45349;48.692;8.186;2023-04-24T09:36:49;1.83;;;1.43;;
59530;SDS011;45349;48.692;8.186;2023-04-24T09:39:22;3.80;;;1.30;;
59530;SDS011;45349;48.692;8.186;2023-04-24T09:41:55;2.77;;;1.30;;
59530;SDS011;45349;48.692;8.186;2023-04-24T09:44:24;2.40;;;1.47;;
59530;SDS011;45349;48.692;8.186;2023-04-24T09:46:53;2.70;;;1.37;;
59530;SDS011;45349;48.692;8.186;2023-04-24T09:49:22;2.93;;;1.50;;
59530;SDS011;45349;48.692;8.186;2023-04-24T09:51:52;1.77;;;1.00;;
59530;SDS011;45349;48.692;8.186;2023-04-24T09:54:20;1.33;;;1.10;;
59530;SDS011;45349;48.692;8.186;2023-04-24T09:56:48;3.27;;;1.60;;
59530;SDS011;45349;48.692;8.186;2023-04-24T09:59:19;2.00;;;1.30;;
59530;SDS011;45349;48.692;8.186;2023-04-24T10:01:46;2.63;;;1.10;;
59530;SDS011;45349;48.692;8.186;2023-04-24T10:04:20;2.10;;;1.37;;
59530;SDS011;45349;48.692;8.186;2023-04-24T10:06:49;3.53;;;1.67;;
59530;SDS011;45349;48.692;8.186;2023-04-24T10:09:23;3.17;;;1.10;;
59530;SDS011;45349;48.692;8.186;2023-04-24T10:11:52;2.80;;;1.80;;
59530;SDS011;45349;48.692;8.186;2023-04-24T10:14:21;4.03;;;1.63;;
59530;SDS011;45349;48.692;8.186;2023-04-24T10:16:49;3.17;;;1.33;;
59530;SDS011;45349;48.692;8.186;2023-04-24T10:19:20;4.93;;;1.37;;
59530;SDS011;45349;48.692;8.186;2023-04-24T10:21:48;3.23;;;1.50;;
59530;SDS011;45349;48.692;8.186;2023-04-24T10:24:20;2.27;;;1.50;;
59530;SDS011;45349;48.692;8.186;2023-04-24T10:26:48;2.67;;;1.53;;
59530;SDS011;45349;48.692;8.186;2023-04-24T10:29:22;3.50;;;1.40;;
59530;SDS011;45349;48.692;8.186;2023-04-24T10:31:49;3.50;;;1.40;;
59530;SDS011;45349;48.692;8.186;2023-04-24T10:34:20;2.50;;;1.53;;
59530;SDS011;45349;48.692;8.186;2023-04-24T10:36:48;3.80;;;1.50;;
59530;SDS011;45349;48.692;8.186;2023-04-24T10:39:20;2.77;;;1.30;;
59530;SDS011;45349;48.692;8.186;2023-04-24T10:41:48;0.00;;;0.00;;
59530;SDS011;45349;48.692;8.186;2023-04-24T10:44:19;0.00;;;0.00;;
59530;SDS011;45349;48.692;8.186;2023-04-24T10:46:52;0.00;;;0.00;;
59530;SDS011;45349;48.692;8.186;2023-04-24T10:49:27;0.00;;;0.00;;
59530;SDS011;45349;48.692;8.186;2023-04-24T10:51:54;0.00;;;0.00;;
59530;SDS011;45349;48.692;8.186;2023-04-24T10:54:29;0.00;;;0.00;;
59530;SDS011;45349;48.692;8.186;2023-04-24T11:02:42;4.20;;;1.10;;
59530;SDS011;45349;48.692;8.186;2023-04-24T11:05:14;2.43;;;1.60;;
59530;SDS011;45349;48.692;8.186;2023-04-24T11:10:40;3.53;;;1.73;;
59530;SDS011;45349;48.692;8.186;2023-04-24T11:13:10;5.17;;;1.80;;
59530;SDS011;45349;48.692;8.186;2023-04-24T11:15:41;4.10;;;1.90;;
59530;SDS011;45349;48.692;8.186;2023-04-24T11:18:12;2.53;;;1.60;;
59530;SDS011;45349;48.692;8.186;2023-04-24T11:20:41;2.60;;;1.43;;
59530;SDS011;45349;48.692;8.186;2023-04-24T11:23:08;3.57;;;1.70;;
59530;SDS011;45349;48.692;8.186;2023-04-24T11:25:38;4.40;;;1.50;;
59530;SDS011;45349;48.692;8.186;2023-04-24T11:28:06;3.63;;;1.60;;
59530;SDS011;45349;48.692;8.186;2023-04-24T11:30:33;1.87;;;1.30;;
59530;SDS011;45349;48.692;8.186;2023-04-24T11:33:03;6.27;;;1.50;;
59530;SDS011;45349;48.692;8.186;2023-04-24T11:35:34;4.57;;;1.80;;
59530;SDS011;45349;48.692;8.186;2023-04-24T11:38:02;4.83;;;1.63;;
59530;SDS011;45349;48.692;8.186;2023-04-24T11:40:30;3.30;;;1.70;;
59530;SDS011;45349;48.692;8.186;2023-04-24T11:42:59;3.60;;;2.00;;
59530;SDS011;45349;48.692;8.186;2023-04-24T11:45:28;2.47;;;1.70;;
59530;SDS011;45349;48.692;8.186;2023-04-24T11:47:55;3.47;;;1.70;;
59530;SDS011;45349;48.692;8.186;2023-04-24T11:50:24;2.87;;;2.00;;
59530;SDS011;45349;48.692;8.186;2023-04-24T11:52:53;2.60;;;1.77;;
59530;SDS011;45349;48.692;8.186;2023-04-24T11:55:24;3.40;;;1.73;;
59530;SDS011;45349;48.692;8.186;2023-04-24T11:57:53;3.50;;;1.70;;
59530;SDS011;45349;48.692;8.186;2023-04-24T12:00:22;3.20;;;1.73;;
59530;SDS011;45349;48.692;8.186;2023-04-24T12:02:51;3.33;;;1.67;;
59530;SDS011;45349;48.692;8.186;2023-04-24T12:05:29;2.50;;;1.70;;
59530;SDS011;45349;48.692;8.186;2023-04-24T12:07:57;2.87;;;2.00;;
59530;SDS011;45349;48.692;8.186;2023-04-24T12:10:24;3.70;;;1.83;;
59530;SDS011;45349;48.692;8.186;2023-04-24T12:12:52;4.97;;;1.80;;
59530;SDS011;45349;48.692;8.186;2023-04-24T12:15:20;3.13;;;1.97;;
59530;SDS011;45349;48.692;8.186;2023-04-24T12:17:47;4.77;;;2.47;;
59530;SDS011;45349;48.692;8.186;2023-04-24T12:20:23;4.17;;;2.33;;
59530;SDS011;45349;48.692;8.186;2023-04-24T12:22:51;4.37;;;2.90;;
59530;SDS011;45349;48.692;8.186;2023-04-24T12:25:19;3.93;;;2.40;;
59530;SDS011;45349;48.692;8.186;2023-04-24T12:27:53;5.53;;;2.40;;
59530;SDS011;45349;48.692;8.186;2023-04-24T12:30:21;2.80;;;2.03;;
59530;SDS011;45349;48.692;8.186;2023-04-24T12:32:53;4.10;;;2.40;;
59530;SDS011;45349;48.692;8.186;2023-04-24T12:35:21;4.27;;;2.20;;
59530;SDS011;45349;48.692;8.186;2023-04-24T12:37:49;4.60;;;2.67;;
59530;SDS011;45349;48.692;8.186;2023-04-24T12:40:16;3.67;;;2.43;;
59530;SDS011;45349;48.692;8.186;2023-04-24T12:42:45;3.73;;;2.47;;
59530;SDS011;45349;48.692;8.186;2023-04-24T12:45:15;4.77;;;2.60;;
59530;SDS011;45349;48.692;8.186;2023-04-24T12:47:43;3.30;;;2.60;;
59530;SDS011;45349;48.692;8.186;2023-04-24T12:50:12;4.90;;;3.17;;
59530;SDS011;45349;48.692;8.186;2023-04-24T12:52:41;4.73;;;2.80;;
59530;SDS011;45349;48.692;8.186;2023-04-24T12:55:34;5.07;;;2.90;;
59530;SDS011;45349;48.692;8.186;2023-04-24T12:58:00;5.87;;;3.57;;
59530;SDS011;45349;48.692;8.186;2023-04-24T13:00:28;6.27;;;3.50;;
59530;SDS011;45349;48.692;8.186;2023-04-24T13:02:55;5.07;;;3.40;;
59530;SDS011;45349;48.692;8.186;2023-04-24T13:05:21;5.90;;;3.40;;
59530;SDS011;45349;48.692;8.186;2023-04-24T13:07:52;3.50;;;3.00;;
59530;SDS011;45349;48.692;8.186;2023-04-24T13:10:30;5.07;;;2.87;;
59530;SDS011;45349;48.692;8.186;2023-04-24T13:12:59;5.43;;;2.87;;
59530;SDS011;45349;48.692;8.186;2023-04-24T13:15:26;0.00;;;0.00;;
59530;SDS011;45349;48.692;8.186;2023-04-24T13:17:53;0.00;;;0.00;;
59530;SDS011;45349;48.692;8.186;2023-04-24T13:20:20;0.00;;;0.00;;
59530;SDS011;45349;48.692;8.186;2023-04-24T13:22:46;0.00;;;0.00;;
59530;SDS011;45349;48.692;8.186;2023-04-24T13:25:14;0.00;;;0.00;;
59530;SDS011;45349;48.692;8.186;2023-04-24T13:27:52;0.00;;;0.00;;
59530;SDS011;45349;48.692;8.186;2023-04-24T13:30:26;0.00;;;0.00;;
59530;SDS011;45349;48.692;8.186;2023-04-24T13:33:08;0.00;;;0.00;;
59530;SDS011;45349;48.692;8.186;2023-04-24T13:35:50;0.00;;;0.00;;
59530;SDS011;45349;48.692;8.186;2023-04-24T13:38:19;0.00;;;0.00;;
59530;SDS011;45349;48.692;8.186;2023-04-24T13:40:52;0.00;;;0.00;;
59530;SDS011;45349;48.692;8.186;2023-04-24T13:43:20;0.00;;;0.00;;
59530;SDS011;45349;48.692;8.186;2023-04-24T13:45:46;0.00;;;0.00;;
59530;SDS011;45349;48.692;8.186;2023-04-24T13:48:13;0.00;;;0.00;;
59530;SDS011;45349;48.692;8.186;2023-04-24T13:50:41;0.00;;;0.00;;
59530;SDS011;45349;48.692;8.186;2023-04-24T13:53:07;4.63;;;2.43;;
59530;SDS011;45349;48.692;8.186;2023-04-24T13:55:34;3.73;;;2.70;;
59530;SDS011;45349;48.692;8.186;2023-04-24T13:58:02;4.17;;;2.50;;
59530;SDS011;45349;48.692;8.186;2023-04-24T14:00:29;3.10;;;2.33;;
59530;SDS011;45349;48.692;8.186;2023-04-24T14:02:56;3.33;;;2.47;;
59530;SDS011;45349;48.692;8.186;2023-04-24T14:05:22;3.67;;;2.63;;
59530;SDS011;45349;48.692;8.186;2023-04-24T14:07:50;11.17;;;8.60;;
59530;SDS011;45349;48.692;8.186;2023-04-24T14:10:16;3.40;;;2.70;;
59530;SDS011;45349;48.692;8.186;2023-04-24T14:12:43;6.23;;;5.00;;
59530;SDS011;45349;48.692;8.186;2023-04-24T14:15:11;6.30;;;3.87;;
59530;SDS011;45349;48.692;8.186;2023-04-24T14:17:38;5.33;;;3.30;;
59530;SDS011;45349;48.692;8.186;2023-04-24T14:20:05;8.63;;;3.90;;
59530;SDS011;45349;48.692;8.186;2023-04-24T14:22:34;5.97;;;5.37;;
59530;SDS011;45349;48.692;8.186;2023-04-24T14:25:00;3.00;;;2.20;;
59530;SDS011;45349;48.692;8.186;2023-04-24T14:27:27;4.67;;;2.20;;
59530;SDS011;45349;48.692;8.186;2023-04-24T14:29:53;4.27;;;2.50;;
59530;SDS011;45349;48.692;8.186;2023-04-24T14:32:22;5.23;;;2.70;;
59530;SDS011;45349;48.692;8.186;2023-04-24T14:34:48;9.40;;;2.83;;
59530;SDS011;45349;48.692;8.186;2023-04-24T14:37:15;5.00;;;3.07;;
59530;SDS011;45349;48.692;8.186;2023-04-24T14:39:41;6.53;;;2.93;;
59530;SDS011;45349;48.692;8.186;2023-04-24T14:42:08;5.63;;;3.20;;
59530;SDS011;45349;48.692;8.186;2023-04-24T14:44:35;5.73;;;3.70;;
59530;SDS011;45349;48.692;8.186;2023-04-24T14:47:01;5.03;;;3.70;;
59530;SDS011;45349;48.692;8.186;2023-04-24T14:49:29;5.20;;;3.50;;
59530;SDS011;45349;48.692;8.186;2023-04-24T14:51:56;5.10;;;3.77;;
59530;SDS011;45349;48.692;8.186;2023-04-24T14:54:23;4.30;;;3.33;;
59530;SDS011;45349;48.692;8.186;2023-04-24T14:56:50;3.87;;;3.47;;
59530;SDS011;45349;48.692;8.186;2023-04-24T14:59:20;4.17;;;3.00;;
59530;SDS011;45349;48.692;8.186;2023-04-24T15:01:47;5.03;;;3.10;;
59530;SDS011;45349;48.692;8.186;2023-04-24T15:04:40;4.60;;;3.03;;
59530;SDS011;45349;48.692;8.186;2023-04-24T15:07:07;4.13;;;3.10;;
59530;SDS011;45349;48.692;8.186;2023-04-24T15:09:34;3.23;;;2.90;;
59530;SDS011;45349;48.692;8.186;2023-04-24T15:12:00;6.17;;;3.63;;
59530;SDS011;45349;48.692;8.186;2023-04-24T15:14:28;4.07;;;2.97;;